CheckWX is a tool to help pilots better visualize weather data.  It is not intended as a substitute for an official pre-flight weather briefing.

17:44:52 UTC

KFVX METAR
Farmville Regional Airport
Farmville, Virginia, USA
Current

30 mins ago

KFVX 201715Z AUTO 03004KT 10SM OVC070 04/M04 A3042 RMK AO2 T00381038
Observed
Feb-20 @ 17:15 UTC
Wind
  • 030° at 4 KTS
Visibility
10 SM
Flight Rules
VFR
Cloud Levels
  • Overcast at 7,000' AGL
Temperature
C / 39°F
Dewpoint
-4°C / 25°F
Humidity
56%
Altimeter
30.42" Hg
Pressure
1030.12 hPa
Previous

50 mins ago

KFVX 201655Z AUTO 03004KT 10SM OVC070 04/M04 A3043 RMK AO2 T00351036
Observed
Feb-20 @ 16:55 UTC
Wind
  • 030° at 4 KTS
Visibility
10 SM
Flight Rules
VFR
Cloud Levels
  • Overcast at 7,000' AGL
Temperature
C / 39°F
Dewpoint
-4°C / 25°F
Humidity
56%
Altimeter
30.43" Hg
Pressure
1030.52 hPa
Previous

1 hour ago

KFVX 201635Z AUTO 02005KT 10SM OVC070 03/M03 A3043 RMK AO2 T00311034
Observed
Feb-20 @ 16:35 UTC
Wind
  • 020° at 5 KTS
Visibility
10 SM
Flight Rules
VFR
Cloud Levels
  • Overcast at 7,000' AGL
Temperature
C / 37°F
Dewpoint
-3°C / 27°F
Humidity
65%
Altimeter
30.43" Hg
Pressure
1030.52 hPa